Time;durP1;ratioP1;P1;durP2;ratioP2;P2;SDS_P1;SDS_P2;PMS_P1;PMS_P2;Temp;Humidity;BMP_temperature;BMP_pressure;BME280_temperature;BME280_humidity;BME280_pressure;Samples;Min_cycle;Max_cycle;Signal;HPM_P1;HPM_P2
2022/03/06 00:02:10;;;;;;;18.17;11.68;;;-0.30;99.90;;;;;;5051542;28;20107;-74
2022/03/06 00:04:36;;;;;;;21.52;13.77;;;-0.30;99.90;;;;;;5018333;28;20051;-74
2022/03/06 00:07:02;;;;;;;18.90;13.00;;;-0.30;99.90;;;;;;5051003;28;20040;-74
2022/03/06 00:09:28;;;;;;;20.00;13.60;;;-0.30;99.90;;;;;;5050986;28;20053;-74
2022/03/06 00:11:54;;;;;;;18.63;12.90;;;-0.30;99.90;;;;;;5034265;28;20452;-74
2022/03/06 00:14:20;;;;;;;18.08;12.60;;;-0.30;99.90;;;;;;5050821;28;20041;-74
2022/03/06 00:16:46;;;;;;;20.73;13.35;;;-0.20;99.90;;;;;;5034530;28;20548;-74
2022/03/06 00:19:12;;;;;;;19.15;13.15;;;-0.20;99.90;;;;;;5034831;28;20041;-74
2022/03/06 00:21:39;;;;;;;16.77;12.70;;;-0.10;99.90;;;;;;5051056;28;20049;-74
2022/03/06 00:24:05;;;;;;;18.70;12.43;;;-0.10;99.90;;;;;;5050805;28;20053;-74
2022/03/06 00:26:31;;;;;;;15.55;11.85;;;0.00;99.90;;;;;;5034110;28;20049;-74
2022/03/06 00:28:57;;;;;;;17.55;12.82;;;0.00;99.90;;;;;;5034548;28;20041;-74
2022/03/06 00:31:23;;;;;;;17.00;10.80;;;0.10;99.90;;;;;;5050579;28;20121;-75
2022/03/06 00:33:49;;;;;;;18.63;12.55;;;0.20;99.90;;;;;;5050818;28;20516;-75
2022/03/06 00:36:15;;;;;;;19.38;11.20;;;0.20;99.90;;;;;;5033990;28;20033;-74
2022/03/06 00:38:42;;;;;;;16.73;11.98;;;0.30;99.90;;;;;;5034267;28;20390;-75
2022/03/06 00:41:08;;;;;;;16.80;11.80;;;0.30;99.90;;;;;;5033989;28;20111;-74
2022/03/06 00:43:34;;;;;;;15.63;11.32;;;0.40;99.90;;;;;;5050459;28;20040;-76
2022/03/06 00:45:59;;;;;;;18.48;10.98;;;0.60;99.90;;;;;;5033762;28;20110;-74
2022/03/06 00:48:25;;;;;;;15.40;11.02;;;0.50;99.90;;;;;;5050825;28;20047;-74
2022/03/06 00:50:51;;;;;;;17.70;11.55;;;0.60;99.90;;;;;;5050266;28;20049;-75
2022/03/06 00:53:17;;;;;;;14.40;10.27;;;0.60;99.90;;;;;;5050366;28;20052;-74
2022/03/06 00:55:42;;;;;;;16.95;11.25;;;0.60;99.90;;;;;;5050494;28;20139;-74
2022/03/06 00:58:09;;;;;;;15.80;10.02;;;0.70;99.90;;;;;;5050766;28;20037;-74
2022/03/06 01:00:40;;;;;;;14.93;10.32;;;0.70;99.90;;;;;;5050221;28;20098;-75
2022/03/06 01:03:12;;;;;;;17.67;10.57;;;0.70;99.90;;;;;;5050300;28;20057;-74
2022/03/06 01:05:38;;;;;;;15.05;10.23;;;0.80;99.90;;;;;;5050152;28;20037;-74
2022/03/06 01:08:05;;;;;;;16.20;10.82;;;0.80;99.90;;;;;;5050568;28;20377;-75
2022/03/06 01:10:32;;;;;;;16.25;10.65;;;0.90;99.90;;;;;;5050384;28;20037;-74
2022/03/06 01:12:58;;;;;;;13.20;10.25;;;1.40;99.90;;;;;;5033512;28;20044;-74
2022/03/06 01:15:24;;;;;;;13.98;10.07;;;0.90;99.90;;;;;;5033869;28;20033;-73
2022/03/06 01:17:49;;;;;;;13.57;9.90;;;0.80;99.90;;;;;;5033601;28;20048;-73
2022/03/06 01:20:17;;;;;;;13.30;9.52;;;0.90;99.90;;;;;;5050376;28;20041;-73
2022/03/06 01:22:46;;;;;;;13.40;9.25;;;0.90;99.90;;;;;;5050416;28;20048;-73
2022/03/06 01:25:12;;;;;;;15.77;11.00;;;1.00;99.90;;;;;;5034648;28;20481;-73
2022/03/06 01:27:38;;;;;;;14.40;9.32;;;1.00;99.90;;;;;;5033349;28;20047;-73
2022/03/06 01:30:05;;;;;;;15.05;9.95;;;1.00;99.90;;;;;;5034748;28;20041;-73
2022/03/06 01:32:32;;;;;;;14.55;9.10;;;1.00;99.90;;;;;;5053890;28;20057;-74
2022/03/06 01:34:59;;;;;;;15.88;9.45;;;1.00;99.90;;;;;;5037824;28;20052;-74
2022/03/06 01:37:25;;;;;;;16.02;9.48;;;1.10;99.90;;;;;;5037594;28;20041;-74
2022/03/06 01:39:51;;;;;;;13.70;8.85;;;1.20;99.90;;;;;;5053681;28;20051;-74
2022/03/06 01:42:17;;;;;;;13.88;9.32;;;1.10;99.90;;;;;;5054076;28;20498;-75
2022/03/06 01:44:50;;;;;;;12.90;8.57;;;1.10;99.90;;;;;;5054215;28;20047;-75
2022/03/06 01:47:36;;;;;;;14.00;8.40;;;1.10;99.90;;;;;;5037425;28;20045;-73
2022/03/06 01:50:08;;;;;;;13.18;8.80;;;1.10;99.90;;;;;;5053955;28;20045;-74
2022/03/06 01:52:34;;;;;;;12.52;8.45;;;1.10;99.90;;;;;;5053496;28;20041;-74
2022/03/06 01:55:00;;;;;;;15.15;8.90;;;1.10;99.90;;;;;;5053488;28;20385;-74
2022/03/06 01:57:27;;;;;;;13.70;8.88;;;1.10;99.90;;;;;;5054049;28;20124;-74
2022/03/06 01:59:53;;;;;;;14.25;8.57;;;1.20;99.90;;;;;;5053355;28;20132;-74
2022/03/06 02:02:19;;;;;;;10.18;7.75;;;1.10;99.90;;;;;;5053397;28;20132;-73
2022/03/06 02:04:45;;;;;;;14.13;8.18;;;1.70;99.90;;;;;;5053387;28;20049;-73
2022/03/06 02:07:11;;;;;;;12.18;7.75;;;1.20;99.90;;;;;;5053492;28;20507;-74
2022/03/06 02:09:36;;;;;;;10.88;8.30;;;1.20;99.90;;;;;;5053358;28;20488;-74
2022/03/06 02:14:51;;;;;;;13.65;8.02;;;1.20;99.90;;;;;;5053190;28;20104;-74
2022/03/06 02:17:17;;;;;;;11.05;7.50;;;1.20;99.90;;;;;;5053212;28;20043;-74
2022/03/06 02:20:11;;;;;;;11.07;8.07;;;1.20;99.90;;;;;;5053540;28;20094;-73
2022/03/06 02:22:39;;;;;;;11.07;7.97;;;1.20;99.90;;;;;;5050024;28;20044;-73
2022/03/06 02:25:33;;;;;;;13.75;8.20;;;1.30;99.90;;;;;;5020189;28;20040;-73
2022/03/06 02:28:01;;;;;;;12.57;7.97;;;1.20;99.90;;;;;;5049563;28;20048;-74
2022/03/06 02:30:32;;;;;;;14.18;8.57;;;2.10;99.90;;;;;;5053215;28;20044;-75
2022/03/06 02:32:59;;;;;;;13.55;7.93;;;1.30;99.90;;;;;;5036305;28;20117;-73
2022/03/06 02:35:26;;;;;;;11.55;8.40;;;1.20;99.90;;;;;;5052803;28;20037;-74
2022/03/06 02:37:52;;;;;;;11.90;7.85;;;1.90;99.90;;;;;;5052659;28;20049;-73
2022/03/06 02:40:20;;;;;;;13.35;8.18;;;1.70;99.90;;;;;;5036052;28;20048;-74
2022/03/06 02:42:47;;;;;;;11.52;7.55;;;1.20;99.90;;;;;;5034777;28;20037;-73
2022/03/06 02:45:17;;;;;;;11.90;7.00;;;1.30;99.90;;;;;;5035887;28;20075;-74
2022/03/06 02:47:44;;;;;;;10.77;7.15;;;1.20;99.90;;;;;;5052879;28;20041;-74
2022/03/06 02:50:13;;;;;;;10.55;7.82;;;1.50;99.90;;;;;;5035894;28;20123;-75
2022/03/06 02:52:38;;;;;;;13.15;8.02;;;1.30;99.90;;;;;;5052791;28;20434;-75
2022/03/06 02:55:06;;;;;;;10.13;7.25;;;1.60;99.90;;;;;;5052496;28;20420;-73
2022/03/06 02:57:32;;;;;;;13.63;7.85;;;1.20;99.90;;;;;;5019518;28;20052;-73
2022/03/06 02:59:58;;;;;;;12.18;7.20;;;1.20;99.90;;;;;;5035802;28;20045;-73
2022/03/06 03:02:24;;;;;;;11.75;7.63;;;1.20;99.90;;;;;;5019313;28;20428;-74
2022/03/06 03:04:50;;;;;;;11.95;7.10;;;1.10;99.90;;;;;;5052876;28;20048;-73
2022/03/06 03:07:15;;;;;;;11.55;7.50;;;1.10;99.90;;;;;;5035572;28;20045;-73
2022/03/06 03:09:41;;;;;;;11.35;8.43;;;1.50;99.90;;;;;;5052017;28;20083;-73
2022/03/06 03:12:08;;;;;;;9.93;6.25;;;1.00;99.90;;;;;;5035429;28;20049;-73
2022/03/06 03:14:35;;;;;;;10.35;7.05;;;1.00;99.90;;;;;;5035488;28;20142;-74
2022/03/06 03:17:05;;;;;;;12.75;7.65;;;1.00;99.90;;;;;;5051964;28;20450;-74
2022/03/06 03:19:32;;;;;;;11.75;7.13;;;0.90;99.90;;;;;;5052293;28;20107;-73
2022/03/06 03:21:58;;;;;;;10.90;7.72;;;0.90;99.90;;;;;;5035595;28;20408;-74
2022/03/06 03:24:24;;;;;;;9.85;7.15;;;0.90;99.90;;;;;;5035294;28;20049;-74
2022/03/06 03:26:51;;;;;;;12.52;8.15;;;1.50;99.90;;;;;;5035281;28;20041;-74
2022/03/06 03:29:16;;;;;;;11.73;7.30;;;0.90;99.90;;;;;;5035505;28;20037;-74
2022/03/06 03:31:42;;;;;;;10.35;7.38;;;0.80;99.90;;;;;;5051901;28;20041;-73
2022/03/06 03:34:08;;;;;;;9.90;7.40;;;0.70;99.90;;;;;;5051946;28;20384;-73
2022/03/06 03:36:34;;;;;;;11.82;6.82;;;0.70;99.90;;;;;;5052033;28;20515;-74
2022/03/06 03:39:00;;;;;;;12.20;7.20;;;0.70;99.90;;;;;;5035110;28;20045;-72
2022/03/06 03:41:25;;;;;;;10.55;7.15;;;0.70;99.90;;;;;;5051897;28;20045;-75
2022/03/06 03:43:52;;;;;;;11.70;6.82;;;0.50;99.90;;;;;;5018571;28;20040;-75
2022/03/06 03:46:18;;;;;;;10.95;7.47;;;0.50;99.90;;;;;;5035127;28;20131;-74
2022/03/06 03:48:44;;;;;;;11.35;6.43;;;0.40;99.90;;;;;;5051337;28;20055;-74
2022/03/06 03:51:10;;;;;;;10.23;7.03;;;0.30;99.90;;;;;;5034781;28;20471;-75
2022/03/06 03:53:36;;;;;;;9.90;5.93;;;0.30;99.90;;;;;;5050975;28;20055;-75
2022/03/06 03:56:04;;;;;;;12.20;6.32;;;1.40;99.90;;;;;;5034594;28;20044;-74
2022/03/06 03:58:30;;;;;;;10.45;6.50;;;0.20;99.90;;;;;;5035353;28;20041;-74
2022/03/06 04:00:55;;;;;;;10.40;6.30;;;0.20;99.90;;;;;;5034497;28;20049;-73
2022/03/06 04:03:22;;;;;;;11.45;6.75;;;0.10;99.90;;;;;;5051287;28;20396;-73
2022/03/06 04:05:47;;;;;;;8.43;5.82;;;0.10;99.90;;;;;;5034575;28;20415;-73
2022/03/06 04:08:14;;;;;;;12.30;6.10;;;0.10;99.90;;;;;;5051183;28;20041;-74
2022/03/06 04:10:39;;;;;;;10.75;6.13;;;0.00;99.90;;;;;;5050963;28;20071;-74
2022/03/06 04:13:05;;;;;;;10.40;5.68;;;0.00;99.90;;;;;;5050748;28;20119;-74
2022/03/06 04:15:31;;;;;;;10.25;6.22;;;-0.10;99.90;;;;;;5050913;28;20037;-74
2022/03/06 04:17:57;;;;;;;8.63;5.22;;;-0.10;99.90;;;;;;5034250;28;20063;-74
2022/03/06 04:20:23;;;;;;;9.40;6.25;;;-0.10;99.90;;;;;;5034589;28;20036;-73
2022/03/06 04:22:48;;;;;;;10.77;5.50;;;-0.10;99.90;;;;;;5051389;28;20041;-75
2022/03/06 04:25:14;;;;;;;9.75;5.70;;;-0.10;99.90;;;;;;5034404;28;20044;-74
2022/03/06 04:27:40;;;;;;;9.57;5.65;;;-0.10;99.90;;;;;;5050719;28;20037;-74
2022/03/06 04:30:06;;;;;;;10.82;5.60;;;-0.10;99.90;;;;;;5034182;28;20492;-74
2022/03/06 04:32:32;;;;;;;9.43;5.10;;;-0.20;99.90;;;;;;5033906;28;20117;-74
2022/03/06 04:34:58;;;;;;;10.82;4.93;;;-0.10;99.90;;;;;;5050619;28;20048;-74
2022/03/06 04:37:24;;;;;;;13.27;6.40;;;-0.10;99.90;;;;;;5050625;28;20040;-74
2022/03/06 04:39:50;;;;;;;8.55;5.70;;;-0.20;99.90;;;;;;5033953;28;20480;-74
2022/03/06 04:42:15;;;;;;;12.38;5.47;;;-0.20;99.90;;;;;;5050672;28;20076;-74
2022/03/06 04:44:41;;;;;;;11.65;5.47;;;-0.20;99.90;;;;;;5034033;28;20086;-74
2022/03/06 04:47:07;;;;;;;8.80;5.50;;;-0.20;99.90;;;;;;5050508;28;20053;-74
2022/03/06 04:49:33;;;;;;;9.45;6.18;;;-0.20;99.90;;;;;;5034204;28;20392;-74
2022/03/06 04:51:59;;;;;;;12.43;6.15;;;-0.10;99.90;;;;;;5033814;28;20037;-74
2022/03/06 04:54:25;;;;;;;10.63;5.53;;;-0.20;99.90;;;;;;5050422;28;20546;-74
2022/03/06 04:56:51;;;;;;;10.70;5.43;;;-0.10;99.90;;;;;;5050718;28;20041;-74
2022/03/06 04:59:17;;;;;;;9.35;4.88;;;-0.20;99.90;;;;;;5050607;28;20033;-74
2022/03/06 05:01:43;;;;;;;9.68;4.97;;;-0.20;99.90;;;;;;5050387;28;20048;-75
2022/03/06 05:04:09;;;;;;;11.55;5.25;;;-0.30;99.90;;;;;;5050221;28;20503;-74
2022/03/06 05:06:35;;;;;;;8.98;5.45;;;-0.30;99.90;;;;;;5053862;28;20037;-74
2022/03/06 05:09:01;;;;;;;8.88;4.30;;;-0.30;99.90;;;;;;5038113;28;20040;-74
2022/03/06 05:11:28;;;;;;;10.57;4.93;;;-0.30;99.90;;;;;;5037734;28;20052;-74
2022/03/06 05:13:54;;;;;;;10.20;4.63;;;-0.30;99.90;;;;;;5037714;28;20041;-74
2022/03/06 05:16:19;;;;;;;10.77;4.80;;;-0.30;99.90;;;;;;5054334;28;20353;-74
2022/03/06 05:18:45;;;;;;;11.27;5.00;;;-0.40;99.90;;;;;;5004758;28;20482;-74
2022/03/06 05:21:11;;;;;;;11.48;5.25;;;-0.40;99.90;;;;;;5054577;28;20045;-73
2022/03/06 05:23:37;;;;;;;6.93;4.32;;;-0.40;99.90;;;;;;5054376;28;20049;-74
2022/03/06 05:26:03;;;;;;;7.38;4.35;;;-0.40;99.90;;;;;;5054074;28;20062;-74
2022/03/06 05:28:29;;;;;;;10.65;4.53;;;-0.40;99.90;;;;;;5037522;28;20044;-74
2022/03/06 05:30:55;;;;;;;11.30;4.60;;;-0.40;99.90;;;;;;5054259;28;20048;-74
2022/03/06 05:33:21;;;;;;;7.95;4.65;;;-0.40;99.90;;;;;;5054232;28;20063;-72
2022/03/06 05:35:47;;;;;;;8.55;5.05;;;-0.40;99.90;;;;;;5021238;28;20033;-75
2022/03/06 05:38:13;;;;;;;8.27;4.53;;;-0.40;99.90;;;;;;5037808;28;20029;-75
2022/03/06 05:40:40;;;;;;;8.80;4.22;;;-0.40;99.90;;;;;;5037258;28;20090;-74
2022/03/06 05:43:06;;;;;;;11.38;4.50;;;-0.40;99.90;;;;;;5053793;28;20037;-72
2022/03/06 05:45:32;;;;;;;8.13;4.57;;;-0.40;99.90;;;;;;5053815;28;20527;-73
2022/03/06 05:47:58;;;;;;;9.05;4.40;;;-0.40;99.90;;;;;;5037197;28;20484;-74
2022/03/06 05:50:23;;;;;;;8.23;4.15;;;-0.40;99.90;;;;;;5053527;28;20088;-74
2022/03/06 05:52:49;;;;;;;8.48;4.30;;;-0.40;99.90;;;;;;5053823;28;20492;-74
2022/03/06 05:55:15;;;;;;;9.70;4.50;;;-0.40;99.90;;;;;;5053499;28;20162;-74
2022/03/06 05:57:41;;;;;;;8.65;4.82;;;-0.40;99.90;;;;;;5053771;28;20041;-75
2022/03/06 06:00:08;;;;;;;9.75;4.88;;;-0.50;99.90;;;;;;5036970;28;20044;-74
2022/03/06 06:02:38;;;;;;;8.52;4.40;;;-0.50;99.90;;;;;;5054041;28;20045;-74
2022/03/06 06:05:05;;;;;;;6.63;3.95;;;-0.50;99.90;;;;;;5053681;28;20049;-74
2022/03/06 06:07:32;;;;;;;7.10;4.65;;;-0.50;99.90;;;;;;5020227;28;20045;-74
2022/03/06 06:09:57;;;;;;;9.95;4.55;;;-0.50;99.90;;;;;;5053711;28;20488;-74
2022/03/06 06:12:23;;;;;;;8.23;5.10;;;-0.60;99.90;;;;;;5053150;28;20040;-73
2022/03/06 06:14:49;;;;;;;8.20;4.30;;;-0.60;99.90;;;;;;5036779;28;20056;-74
2022/03/06 06:17:14;;;;;;;8.15;4.20;;;-0.50;99.90;;;;;;5036395;28;20040;-74
2022/03/06 06:19:40;;;;;;;7.90;4.28;;;-0.50;99.90;;;;;;5020403;28;20041;-74
2022/03/06 06:22:06;;;;;;;8.43;4.13;;;-0.50;99.90;;;;;;5036521;28;20123;-74
2022/03/06 06:24:32;;;;;;;8.40;4.50;;;0.20;99.90;;;;;;5019888;28;20045;-74
2022/03/06 06:26:57;;;;;;;7.57;4.43;;;-0.50;99.90;;;;;;5052972;28;20187;-73
2022/03/06 06:29:23;;;;;;;8.02;4.22;;;-0.20;99.90;;;;;;5019838;28;20054;-74
2022/03/06 06:31:50;;;;;;;7.38;3.92;;;-0.50;99.90;;;;;;5036603;28;20040;-74
2022/03/06 06:34:15;;;;;;;8.57;3.97;;;-0.50;99.90;;;;;;5052879;28;20393;-74
2022/03/06 06:36:41;;;;;;;8.85;4.47;;;-0.50;99.90;;;;;;5052697;28;20044;-74
2022/03/06 06:39:09;;;;;;;10.20;4.43;;;-0.50;99.90;;;;;;5052710;28;20087;-74
2022/03/06 06:41:37;;;;;;;6.95;3.97;;;-0.50;99.90;;;;;;5036114;28;20102;-75
2022/03/06 06:44:03;;;;;;;6.55;4.00;;;-0.60;99.90;;;;;;5036535;28;20045;-74
2022/03/06 06:46:28;;;;;;;8.00;4.10;;;-0.50;99.90;;;;;;5036146;28;20056;-75
2022/03/06 06:48:54;;;;;;;6.80;4.28;;;-0.60;99.90;;;;;;5053087;28;20041;-74
2022/03/06 06:51:19;;;;;;;10.00;4.15;;;-0.60;99.90;;;;;;5035941;28;20124;-74
2022/03/06 06:53:45;;;;;;;7.63;4.50;;;-0.60;99.90;;;;;;5019173;28;20053;-74
2022/03/06 06:56:11;;;;;;;10.32;4.72;;;-0.60;99.90;;;;;;5035806;28;20522;-74
2022/03/06 06:58:37;;;;;;;7.13;4.47;;;-0.60;99.90;;;;;;5019706;28;20260;-74
2022/03/06 07:01:03;;;;;;;10.02;5.05;;;-0.60;99.90;;;;;;5052474;28;20041;-74
2022/03/06 07:03:28;;;;;;;6.82;3.70;;;-0.60;99.90;;;;;;5036060;28;20550;-74
2022/03/06 07:05:55;;;;;;;7.65;4.03;;;-0.50;99.90;;;;;;5035760;28;20049;-74
2022/03/06 07:08:21;;;;;;;6.03;3.80;;;-0.50;99.90;;;;;;5052490;28;20049;-74
2022/03/06 07:10:47;;;;;;;5.82;3.55;;;-0.60;99.90;;;;;;5035863;28;20470;-74
2022/03/06 07:13:13;;;;;;;7.25;4.15;;;-0.50;99.90;;;;;;5052148;28;20040;-74
2022/03/06 07:15:38;;;;;;;7.90;3.50;;;-0.40;99.90;;;;;;5052035;28;20050;-74
2022/03/06 07:18:04;;;;;;;5.72;3.30;;;-0.40;99.90;;;;;;5035505;28;20068;-74
2022/03/06 07:20:30;;;;;;;6.88;3.92;;;-0.40;99.90;;;;;;5051987;28;20124;-74
2022/03/06 07:22:56;;;;;;;7.85;3.78;;;-0.30;99.90;;;;;;5051955;28;20072;-74
2022/03/06 07:25:22;;;;;;;8.57;3.58;;;-0.20;99.90;;;;;;5019021;28;20523;-74
2022/03/06 07:27:48;;;;;;;6.50;3.05;;;-0.20;99.90;;;;;;5051689;28;20029;-74
2022/03/06 07:30:14;;;;;;;5.43;3.40;;;-0.10;99.90;;;;;;5035359;28;20052;-74
2022/03/06 07:32:41;;;;;;;6.22;3.28;;;0.60;99.90;;;;;;5034976;28;20064;-75
2022/03/06 07:35:08;;;;;;;5.13;3.10;;;0.20;99.90;;;;;;5035183;28;20510;-74
2022/03/06 07:37:33;;;;;;;4.78;3.05;;;0.30;99.90;;;;;;5035235;28;20041;-74
2022/03/06 07:39:59;;;;;;;5.10;3.13;;;0.40;99.90;;;;;;5019005;28;20033;-74
2022/03/06 07:42:24;;;;;;;8.48;3.33;;;0.60;99.90;;;;;;5051727;28;20044;-74
2022/03/06 07:44:50;;;;;;;5.40;2.88;;;0.70;99.90;;;;;;5035024;28;20550;-74
2022/03/06 07:47:16;;;;;;;5.10;2.88;;;1.10;99.90;;;;;;5035216;28;20072;-74
2022/03/06 07:49:42;;;;;;;4.55;3.10;;;1.30;99.90;;;;;;5051772;28;20041;-74
2022/03/06 07:52:07;;;;;;;4.88;2.75;;;1.00;99.90;;;;;;5034610;28;20040;-74
2022/03/06 07:54:33;;;;;;;5.53;2.70;;;1.20;99.90;;;;;;5034515;28;20067;-74
2022/03/06 07:56:59;;;;;;;4.45;2.85;;;1.30;99.90;;;;;;5051033;28;20123;-75
2022/03/06 07:59:25;;;;;;;5.40;2.78;;;1.40;99.90;;;;;;5051071;28;20132;-74
2022/03/06 08:01:55;;;;;;;3.00;2.58;;;1.50;99.90;;;;;;5051405;28;20049;-74
2022/03/06 08:04:24;;;;;;;4.43;3.10;;;1.70;99.90;;;;;;5034931;28;20049;-74
2022/03/06 08:06:50;;;;;;;7.97;4.25;;;1.70;99.90;;;;;;5034513;28;20855;-74
2022/03/06 08:09:15;;;;;;;5.22;2.92;;;1.90;99.90;;;;;;5050852;28;20049;-74
2022/03/06 08:11:41;;;;;;;6.47;3.15;;;2.60;99.90;;;;;;5017959;28;20493;-74
2022/03/06 08:14:07;;;;;;;4.45;2.58;;;2.50;99.90;;;;;;5050815;28;20076;-74
2022/03/06 08:16:33;;;;;;;6.43;3.05;;;2.40;99.90;;;;;;5034700;28;20076;-75
2022/03/06 08:18:58;;;;;;;7.72;3.00;;;3.00;99.90;;;;;;5050871;28;20037;-75
2022/03/06 08:21:24;;;;;;;5.47;3.13;;;2.80;99.90;;;;;;5034070;28;20107;-75
2022/03/06 08:23:51;;;;;;;3.75;2.38;;;2.40;99.90;;;;;;5034217;28;20083;-75
2022/03/06 08:26:17;;;;;;;3.88;2.33;;;2.50;99.90;;;;;;5034606;28;20049;-74
2022/03/06 08:28:43;;;;;;;5.25;2.70;;;2.60;99.90;;;;;;5050988;28;20095;-75
2022/03/06 08:31:10;;;;;;;6.32;2.55;;;2.80;99.90;;;;;;5050617;28;20049;-75
2022/03/06 08:33:35;;;;;;;4.97;2.65;;;2.80;99.90;;;;;;5050576;28;20033;-75
2022/03/06 08:36:01;;;;;;;4.68;2.90;;;2.90;99.90;;;;;;5050586;28;20041;-75
2022/03/06 08:38:27;;;;;;;6.35;3.03;;;2.90;99.90;;;;;;5050586;28;20044;-75
2022/03/06 08:40:53;;;;;;;3.60;2.35;;;3.90;99.90;;;;;;5033735;28;20437;-75
2022/03/06 08:43:18;;;;;;;5.97;2.28;;;3.10;99.90;;;;;;5033735;28;20537;-76
2022/03/06 08:45:44;;;;;;;5.18;2.35;;;3.10;99.90;;;;;;5034079;28;20459;-75
2022/03/06 08:48:10;;;;;;;6.78;3.65;;;3.20;99.90;;;;;;5050622;28;20037;-74
2022/03/06 08:50:36;;;;;;;4.03;2.45;;;3.20;99.90;;;;;;5050368;28;20060;-75
2022/03/06 08:53:02;;;;;;;4.28;2.70;;;3.30;99.90;;;;;;5017086;28;20123;-74
2022/03/06 08:55:28;;;;;;;3.28;2.53;;;3.40;99.90;;;;;;5050650;28;20048;-74
2022/03/06 08:57:54;;;;;;;5.40;2.67;;;3.40;99.90;;;;;;5050623;28;20049;-75
2022/03/06 09:00:20;;;;;;;5.13;2.63;;;;;;;;;;5050734;28;20441;-75
2022/03/06 09:02:46;;;;;;;4.10;2.25;;;3.50;99.90;;;;;;5033958;28;20052;-75
2022/03/06 09:05:12;;;;;;;6.57;2.60;;;3.60;99.90;;;;;;5050971;28;20041;-74
2022/03/06 09:07:38;;;;;;;3.38;2.25;;;3.60;99.90;;;;;;5017572;28;20133;-74
2022/03/06 09:10:04;;;;;;;3.75;2.50;;;3.60;99.90;;;;;;5034405;28;20053;-74
2022/03/06 09:12:30;;;;;;;4.55;2.45;;;3.70;99.90;;;;;;5033668;28;20045;-75
2022/03/06 09:14:56;;;;;;;7.32;2.63;;;3.80;99.90;;;;;;5050482;28;20049;-74
2022/03/06 09:17:21;;;;;;;7.20;2.65;;;3.80;99.90;;;;;;5050574;28;20549;-74
2022/03/06 09:19:47;;;;;;;6.35;2.80;;;3.80;99.90;;;;;;5034189;28;20044;-74
2022/03/06 09:22:13;;;;;;;4.43;2.50;;;3.90;99.90;;;;;;5050257;28;20090;-76
2022/03/06 09:24:41;;;;;;;5.35;3.00;;;3.90;99.90;;;;;;5033603;28;20131;-74
2022/03/06 09:27:07;;;;;;;7.05;2.63;;;4.00;99.90;;;;;;5033827;28;20056;-74
2022/03/06 09:29:33;;;;;;;5.03;2.42;;;4.00;99.90;;;;;;5033708;28;20041;-75
2022/03/06 09:31:59;;;;;;;3.65;2.25;;;4.70;99.90;;;;;;5050073;28;20135;-73
2022/03/06 09:34:24;;;;;;;4.95;2.40;;;4.10;99.90;;;;;;5017344;28;20350;-73
2022/03/06 09:36:50;;;;;;;5.30;2.92;;;4.10;99.90;;;;;;5033374;28;20047;-74
2022/03/06 09:39:16;;;;;;;6.72;2.65;;;4.10;99.90;;;;;;5033847;28;20495;-74
2022/03/06 09:41:43;;;;;;;3.10;2.40;;;4.20;99.90;;;;;;5049997;28;20063;-74
2022/03/06 09:44:10;;;;;;;3.65;2.40;;;4.20;99.90;;;;;;5050674;28;20048;-75
2022/03/06 09:46:37;;;;;;;4.28;2.50;;;4.90;99.90;;;;;;5050447;28;20571;-75
2022/03/06 09:49:05;;;;;;;3.45;2.40;;;4.30;99.90;;;;;;5050377;28;20113;-75
2022/03/06 09:51:38;;;;;;;4.57;2.45;;;4.40;99.90;;;;;;5034822;28;20049;-75
2022/03/06 09:54:05;;;;;;;3.13;2.30;;;5.60;99.90;;;;;;5053852;28;20061;-75
2022/03/06 09:56:31;;;;;;;6.07;2.35;;;4.40;99.90;;;;;;5053686;28;20060;-75
2022/03/06 09:58:57;;;;;;;5.47;2.17;;;4.40;99.90;;;;;;5053909;28;20037;-75
2022/03/06 10:01:22;;;;;;;7.88;2.08;;;4.40;99.90;;;;;;5053596;28;20048;-75
2022/03/06 10:03:48;;;;;;;4.18;2.05;;;4.40;99.90;;;;;;5037010;28;20128;-74
2022/03/06 10:06:14;;;;;;;4.43;2.33;;;4.40;99.90;;;;;;5053376;28;20103;-74
2022/03/06 10:08:40;;;;;;;4.43;2.58;;;4.50;99.90;;;;;;5037401;28;20435;-75
2022/03/06 10:11:11;;;;;;;5.47;2.10;;;4.60;99.90;;;;;;5036849;28;20073;-75
2022/03/06 10:13:42;;;;;;;4.28;2.25;;;4.70;99.90;;;;;;5053513;28;20095;-74
2022/03/06 10:16:17;;;;;;;6.32;2.33;;;4.80;99.90;;;;;;5037379;28;20397;-75
2022/03/06 10:18:48;;;;;;;4.35;1.70;;;4.90;99.90;;;;;;5053795;28;20040;-75
2022/03/06 10:21:28;;;;;;;4.93;2.42;;;5.00;99.90;;;;;;5053449;28;20053;-75
2022/03/06 10:23:56;;;;;;;5.28;2.60;;;5.00;99.90;;;;;;5053838;28;20098;-75
2022/03/06 10:26:24;;;;;;;4.55;2.20;;;5.30;99.90;;;;;;5036713;28;20127;-73
2022/03/06 10:28:57;;;;;;;4.70;2.47;;;5.20;99.90;;;;;;5053025;28;20123;-74
2022/03/06 10:31:28;;;;;;;7.75;2.60;;;5.30;99.90;;;;;;5036416;28;20037;-75
2022/03/06 10:33:54;;;;;;;;;;;;;;;;;;5053368;28;20044;-74
2022/03/06 10:36:34;;;;;;;5.20;2.30;;;5.50;99.90;;;;;;5053292;28;19924;-74
2022/03/06 10:39:02;;;;;;;4.63;2.95;;;5.60;99.90;;;;;;5053139;28;20037;-74
2022/03/06 10:41:36;;;;;;;6.78;3.00;;;5.70;99.90;;;;;;5052858;28;20057;-74
2022/03/06 10:44:03;;;;;;;3.22;1.90;;;5.80;99.90;;;;;;5036586;28;20041;-75
2022/03/06 10:46:33;;;;;;;3.40;2.20;;;5.80;99.90;;;;;;5052656;28;20044;-75
2022/03/06 10:49:07;;;;;;;3.42;2.45;;;5.90;99.90;;;;;;5021293;28;20049;-74
2022/03/06 10:51:42;;;;;;;3.92;2.33;;;5.90;99.90;;;;;;5052828;28;20523;-74
2022/03/06 10:54:09;;;;;;;4.75;2.33;;;6.00;99.90;;;;;;5052410;28;20057;-75
2022/03/06 10:56:36;;;;;;;5.38;2.55;;;6.20;99.90;;;;;;5036203;28;20048;-75
2022/03/06 10:59:04;;;;;;;4.70;2.30;;;6.40;99.90;;;;;;5019690;28;20476;-75
2022/03/06 11:01:29;;;;;;;3.20;2.10;;;6.50;99.90;;;;;;5035974;28;20052;-75
2022/03/06 11:03:59;;;;;;;4.18;2.30;;;6.20;99.90;;;;;;5051546;28;20041;-75
2022/03/06 11:06:27;;;;;;;6.30;2.72;;;6.50;99.90;;;;;;5035868;28;20075;-75
2022/03/06 11:08:54;;;;;;;4.57;2.35;;;6.40;99.90;;;;;;5052521;28;20373;-74
2022/03/06 11:11:21;;;;;;;6.53;2.83;;;6.70;99.90;;;;;;5052483;28;20381;-75
2022/03/06 11:13:47;;;;;;;4.18;2.35;;;6.40;99.90;;;;;;5052524;28;20447;-75
2022/03/06 11:16:14;;;;;;;6.03;2.65;;;6.40;99.90;;;;;;5052508;28;20761;-74
2022/03/06 11:18:40;;;;;;;6.05;2.60;;;6.40;99.90;;;;;;5019283;28;20067;-74
2022/03/06 11:21:07;;;;;;;4.65;2.80;;;6.60;99.90;;;;;;5051950;28;20067;-75
2022/03/06 11:23:42;;;;;;;3.67;2.33;;;7.20;99.90;;;;;;5035427;28;20047;-74
2022/03/06 11:26:14;;;;;;;4.57;2.53;;;6.70;99.90;;;;;;5052052;28;20134;-75
2022/03/06 11:29:10;;;;;;;4.57;2.33;;;6.60;99.90;;;;;;5035202;28;20111;-74
2022/03/06 11:31:44;;;;;;;3.78;2.33;;;6.70;99.90;;;;;;5035026;28;20045;-76
2022/03/06 11:34:10;;;;;;;5.90;2.80;;;6.60;99.90;;;;;;5035446;28;20064;-75
2022/03/06 11:36:45;;;;;;;5.25;2.78;;;;;;;;;;5035488;28;20126;-76
2022/03/06 11:39:15;;;;;;;6.88;2.70;;;6.90;99.90;;;;;;5034865;28;20037;-75
2022/03/06 11:41:41;;;;;;;5.07;2.55;;;7.10;99.90;;;;;;5052231;28;20138;-75
2022/03/06 11:44:36;;;;;;;7.22;3.58;;;7.70;99.90;;;;;;5034691;28;20076;-74
2022/03/06 11:47:21;;;;;;;7.65;2.58;;;7.70;99.90;;;;;;5035424;28;20052;-75
2022/03/06 11:50:01;;;;;;;5.07;2.50;;;7.80;99.90;;;;;;5035042;28;20056;-74
2022/03/06 11:52:35;;;;;;;3.70;2.22;;;8.00;99.90;;;;;;5051399;28;20057;-73
2022/03/06 11:55:02;;;;;;;6.22;2.38;;;8.10;99.90;;;;;;5051148;28;20053;-75
2022/03/06 11:57:42;;;;;;;5.47;2.25;;;8.30;99.90;;;;;;5051411;28;20048;-74
2022/03/06 12:00:26;;;;;;;7.03;2.63;;;8.30;99.90;;;;;;5051816;28;20091;-75
2022/03/06 12:02:59;;;;;;;3.53;2.47;;;8.40;99.90;;;;;;5051197;28;20044;-75
2022/03/06 12:06:00;;;;;;;4.45;2.30;;;8.50;99.90;;;;;;5051261;28;20128;-74
2022/03/06 12:08:26;;;;;;;5.13;2.35;;;8.70;99.90;;;;;;4974509;28;20038;-75
2022/03/06 12:10:52;;;;;;;4.55;2.60;;;8.90;99.90;;;;;;5034394;28;20419;-74
2022/03/06 12:13:23;;;;;;;4.55;2.67;;;8.90;99.90;;;;;;5034469;28;20037;-74
2022/03/06 12:16:08;;;;;;;6.93;2.28;;;9.10;99.90;;;;;;5050705;28;20083;-74
2022/03/06 12:18:34;;;;;;;4.45;2.40;;;9.20;99.90;;;;;;5050896;28;20055;-74
2022/03/06 12:21:00;;;;;;;6.05;2.78;;;9.40;99.90;;;;;;5017784;28;20041;-73
2022/03/06 12:23:28;;;;;;;3.35;2.20;;;9.60;99.90;;;;;;5051077;28;20447;-74
2022/03/06 12:25:58;;;;;;;4.65;2.40;;;9.60;99.90;;;;;;5051065;28;20055;-75
2022/03/06 12:28:38;;;;;;;5.35;2.80;;;10.00;99.90;;;;;;5034243;28;20135;-75
2022/03/06 12:31:33;;;;;;;4.63;2.78;;;9.60;99.90;;;;;;5050854;28;20420;-74
2022/03/06 12:34:00;;;;;;;5.72;2.55;;;9.40;99.90;;;;;;5050647;28;20098;-75
2022/03/06 12:36:26;;;;;;;4.55;2.45;;;9.30;99.90;;;;;;5034354;28;20076;-75
2022/03/06 12:38:58;;;;;;;6.03;2.72;;;9.40;99.90;;;;;;5050649;28;20509;-75
2022/03/06 12:41:25;;;;;;;5.70;2.30;;;9.30;99.90;;;;;;5050643;28;20048;-75
2022/03/06 12:44:06;;;;;;;8.43;2.90;;;9.60;99.90;;;;;;5034267;28;20033;-75
2022/03/06 12:46:32;;;;;;;4.68;2.88;;;9.10;99.90;;;;;;5051085;28;20057;-75
2022/03/06 12:48:59;;;;;;;3.72;2.40;;;9.00;99.90;;;;;;5050998;28;20491;-75
2022/03/06 12:51:39;;;;;;;4.75;2.50;;;8.90;99.90;;;;;;5050417;28;20041;-73
2022/03/06 12:54:16;;;;;;;4.95;3.00;;;8.90;99.90;;;;;;5050539;28;20097;-74
2022/03/06 12:56:42;;;;;;;5.03;2.60;;;8.80;99.90;;;;;;5050807;28;20040;-74